Terminal Aerodrome Forecast
Issued by NWS

Home | Current Version | Previous Version | Text Only | Print | Product List | Glossary On
Versions: 1 2 3 4 5 6 7 8 9 10 11 12 13 14 15
000
FTUS44 KSJT 052300
TAFBBD
TAF
KBBD 052320Z 0600/0624 16008KT P6SM VCSH BKN040
     FM060400 16008KT P6SM BKN025
     FM060800 15008KT P6SM BKN012
     FM061600 18016G24KT P6SM SCT025 OVC050=

USA.gov is the U.S. government's official web portal to all federal, state and local government web resources and services.